sensor_id;sensor_type;location;lat;lon;timestamp;P1;durP1;ratioP1;P2;durP2;ratioP2
6785;SDS011;3430;51.192;6.048;2024-01-06T00:00:59;4.73;;;4.03;;
6785;SDS011;3430;51.192;6.048;2024-01-06T00:03:24;4.73;;;4.23;;
6785;SDS011;3430;51.192;6.048;2024-01-06T00:05:49;4.97;;;4.57;;
6785;SDS011;3430;51.192;6.048;2024-01-06T00:08:15;5.10;;;4.70;;
6785;SDS011;3430;51.192;6.048;2024-01-06T00:10:40;4.93;;;4.53;;
6785;SDS011;3430;51.192;6.048;2024-01-06T00:13:05;5.20;;;4.27;;
6785;SDS011;3430;51.192;6.048;2024-01-06T00:15:31;4.87;;;4.47;;
6785;SDS011;3430;51.192;6.048;2024-01-06T00:17:56;5.83;;;5.10;;
6785;SDS011;3430;51.192;6.048;2024-01-06T00:20:21;5.83;;;4.60;;
6785;SDS011;3430;51.192;6.048;2024-01-06T00:22:46;4.90;;;4.40;;
6785;SDS011;3430;51.192;6.048;2024-01-06T00:25:12;5.47;;;4.87;;
6785;SDS011;3430;51.192;6.048;2024-01-06T00:27:37;5.43;;;4.60;;
6785;SDS011;3430;51.192;6.048;2024-01-06T00:30:03;5.27;;;4.77;;
6785;SDS011;3430;51.192;6.048;2024-01-06T00:32:28;5.27;;;4.77;;
6785;SDS011;3430;51.192;6.048;2024-01-06T00:34:54;5.10;;;4.67;;
6785;SDS011;3430;51.192;6.048;2024-01-06T00:37:19;5.57;;;5.07;;
6785;SDS011;3430;51.192;6.048;2024-01-06T00:39:45;5.07;;;4.57;;
6785;SDS011;3430;51.192;6.048;2024-01-06T00:42:10;4.53;;;4.13;;
6785;SDS011;3430;51.192;6.048;2024-01-06T00:44:35;6.07;;;4.50;;
6785;SDS011;3430;51.192;6.048;2024-01-06T00:47:01;5.40;;;4.90;;
6785;SDS011;3430;51.192;6.048;2024-01-06T00:49:26;4.50;;;4.10;;
6785;SDS011;3430;51.192;6.048;2024-01-06T00:51:51;5.50;;;4.87;;
6785;SDS011;3430;51.192;6.048;2024-01-06T00:54:17;6.20;;;5.60;;
6785;SDS011;3430;51.192;6.048;2024-01-06T00:56:42;6.13;;;4.93;;
6785;SDS011;3430;51.192;6.048;2024-01-06T00:59:08;5.77;;;5.13;;
6785;SDS011;3430;51.192;6.048;2024-01-06T01:01:33;5.90;;;5.30;;
6785;SDS011;3430;51.192;6.048;2024-01-06T01:03:58;6.50;;;5.13;;
6785;SDS011;3430;51.192;6.048;2024-01-06T01:06:24;6.73;;;5.83;;
6785;SDS011;3430;51.192;6.048;2024-01-06T01:08:49;5.73;;;5.17;;
6785;SDS011;3430;51.192;6.048;2024-01-06T01:11:15;5.63;;;5.03;;
6785;SDS011;3430;51.192;6.048;2024-01-06T01:13:40;6.10;;;5.50;;
6785;SDS011;3430;51.192;6.048;2024-01-06T01:16:06;5.67;;;4.93;;
6785;SDS011;3430;51.192;6.048;2024-01-06T01:18:31;9.07;;;5.73;;
6785;SDS011;3430;51.192;6.048;2024-01-06T01:20:56;5.80;;;5.27;;
6785;SDS011;3430;51.192;6.048;2024-01-06T01:23:22;5.33;;;4.83;;
6785;SDS011;3430;51.192;6.048;2024-01-06T01:25:47;6.83;;;5.30;;
6785;SDS011;3430;51.192;6.048;2024-01-06T01:28:12;6.60;;;5.73;;
6785;SDS011;3430;51.192;6.048;2024-01-06T01:30:38;7.20;;;6.10;;
6785;SDS011;3430;51.192;6.048;2024-01-06T01:33:03;7.30;;;6.03;;
6785;SDS011;3430;51.192;6.048;2024-01-06T01:35:29;7.33;;;6.00;;
6785;SDS011;3430;51.192;6.048;2024-01-06T01:37:54;6.23;;;5.63;;
6785;SDS011;3430;51.192;6.048;2024-01-06T01:40:19;6.33;;;5.30;;
6785;SDS011;3430;51.192;6.048;2024-01-06T01:42:45;6.13;;;5.53;;
6785;SDS011;3430;51.192;6.048;2024-01-06T01:45:10;6.40;;;4.97;;
6785;SDS011;3430;51.192;6.048;2024-01-06T01:47:35;6.40;;;5.70;;
6785;SDS011;3430;51.192;6.048;2024-01-06T01:50:01;8.37;;;6.10;;
6785;SDS011;3430;51.192;6.048;2024-01-06T01:52:28;6.20;;;5.60;;
6785;SDS011;3430;51.192;6.048;2024-01-06T01:54:53;6.73;;;5.80;;
6785;SDS011;3430;51.192;6.048;2024-01-06T01:57:19;7.13;;;6.40;;
6785;SDS011;3430;51.192;6.048;2024-01-06T01:59:46;7.37;;;6.57;;
6785;SDS011;3430;51.192;6.048;2024-01-06T02:02:12;6.50;;;5.70;;
6785;SDS011;3430;51.192;6.048;2024-01-06T02:04:38;6.80;;;6.10;;
6785;SDS011;3430;51.192;6.048;2024-01-06T02:07:03;7.43;;;6.37;;
6785;SDS011;3430;51.192;6.048;2024-01-06T02:09:29;7.73;;;6.13;;
6785;SDS011;3430;51.192;6.048;2024-01-06T02:11:56;7.57;;;6.40;;
6785;SDS011;3430;51.192;6.048;2024-01-06T02:14:22;8.40;;;6.83;;
6785;SDS011;3430;51.192;6.048;2024-01-06T02:16:47;8.17;;;6.47;;
6785;SDS011;3430;51.192;6.048;2024-01-06T02:19:12;7.17;;;6.20;;
6785;SDS011;3430;51.192;6.048;2024-01-06T02:21:42;9.17;;;6.47;;
6785;SDS011;3430;51.192;6.048;2024-01-06T02:24:07;6.37;;;5.77;;
6785;SDS011;3430;51.192;6.048;2024-01-06T02:26:32;7.83;;;7.03;;
6785;SDS011;3430;51.192;6.048;2024-01-06T02:28:58;7.60;;;6.40;;
6785;SDS011;3430;51.192;6.048;2024-01-06T02:31:24;7.27;;;5.67;;
6785;SDS011;3430;51.192;6.048;2024-01-06T02:33:49;7.23;;;6.40;;
6785;SDS011;3430;51.192;6.048;2024-01-06T02:36:14;7.47;;;6.63;;
6785;SDS011;3430;51.192;6.048;2024-01-06T02:38:40;8.13;;;6.97;;
6785;SDS011;3430;51.192;6.048;2024-01-06T02:41:05;7.70;;;6.30;;
6785;SDS011;3430;51.192;6.048;2024-01-06T02:43:30;7.53;;;6.80;;
6785;SDS011;3430;51.192;6.048;2024-01-06T02:45:55;8.07;;;7.07;;
6785;SDS011;3430;51.192;6.048;2024-01-06T02:48:21;7.00;;;6.30;;
6785;SDS011;3430;51.192;6.048;2024-01-06T02:50:46;8.57;;;6.60;;
6785;SDS011;3430;51.192;6.048;2024-01-06T02:53:12;7.83;;;6.30;;
6785;SDS011;3430;51.192;6.048;2024-01-06T02:55:38;7.40;;;6.40;;
6785;SDS011;3430;51.192;6.048;2024-01-06T02:58:04;7.37;;;6.60;;
6785;SDS011;3430;51.192;6.048;2024-01-06T03:00:29;8.47;;;7.00;;
6785;SDS011;3430;51.192;6.048;2024-01-06T03:02:54;7.83;;;7.10;;
6785;SDS011;3430;51.192;6.048;2024-01-06T03:05:20;7.10;;;6.40;;
6785;SDS011;3430;51.192;6.048;2024-01-06T03:07:45;7.83;;;7.03;;
6785;SDS011;3430;51.192;6.048;2024-01-06T03:10:10;7.83;;;7.03;;
6785;SDS011;3430;51.192;6.048;2024-01-06T03:12:35;7.27;;;6.57;;
6785;SDS011;3430;51.192;6.048;2024-01-06T03:15:01;8.73;;;6.70;;
6785;SDS011;3430;51.192;6.048;2024-01-06T03:17:26;8.77;;;6.50;;
6785;SDS011;3430;51.192;6.048;2024-01-06T03:19:53;8.00;;;7.20;;
6785;SDS011;3430;51.192;6.048;2024-01-06T03:22:19;9.07;;;7.43;;
6785;SDS011;3430;51.192;6.048;2024-01-06T03:24:44;8.10;;;7.10;;
6785;SDS011;3430;51.192;6.048;2024-01-06T03:27:10;8.60;;;7.07;;
6785;SDS011;3430;51.192;6.048;2024-01-06T03:29:35;8.97;;;7.57;;
6785;SDS011;3430;51.192;6.048;2024-01-06T03:32:00;8.30;;;7.17;;
6785;SDS011;3430;51.192;6.048;2024-01-06T03:34:26;8.67;;;6.80;;
6785;SDS011;3430;51.192;6.048;2024-01-06T03:36:51;8.80;;;7.23;;
6785;SDS011;3430;51.192;6.048;2024-01-06T03:39:16;7.73;;;6.73;;
6785;SDS011;3430;51.192;6.048;2024-01-06T03:41:42;8.03;;;6.97;;
6785;SDS011;3430;51.192;6.048;2024-01-06T03:44:07;8.10;;;6.53;;
6785;SDS011;3430;51.192;6.048;2024-01-06T03:46:34;8.57;;;7.10;;
6785;SDS011;3430;51.192;6.048;2024-01-06T03:48:59;7.70;;;6.67;;
6785;SDS011;3430;51.192;6.048;2024-01-06T03:51:24;7.73;;;6.77;;
6785;SDS011;3430;51.192;6.048;2024-01-06T03:53:50;9.23;;;7.47;;
6785;SDS011;3430;51.192;6.048;2024-01-06T03:56:15;7.03;;;6.33;;
6785;SDS011;3430;51.192;6.048;2024-01-06T03:58:40;9.13;;;7.33;;
6785;SDS011;3430;51.192;6.048;2024-01-06T04:01:06;10.33;;;7.50;;
6785;SDS011;3430;51.192;6.048;2024-01-06T04:03:31;8.03;;;6.70;;
6785;SDS011;3430;51.192;6.048;2024-01-06T04:05:56;8.63;;;7.03;;
6785;SDS011;3430;51.192;6.048;2024-01-06T04:08:22;8.37;;;6.97;;
6785;SDS011;3430;51.192;6.048;2024-01-06T04:10:47;8.07;;;7.17;;
6785;SDS011;3430;51.192;6.048;2024-01-06T04:13:15;8.23;;;6.77;;
6785;SDS011;3430;51.192;6.048;2024-01-06T04:15:40;11.17;;;7.87;;
6785;SDS011;3430;51.192;6.048;2024-01-06T04:18:06;9.63;;;7.53;;
6785;SDS011;3430;51.192;6.048;2024-01-06T04:20:31;11.27;;;7.83;;
6785;SDS011;3430;51.192;6.048;2024-01-06T04:22:57;8.93;;;7.03;;
6785;SDS011;3430;51.192;6.048;2024-01-06T04:25:22;7.23;;;6.20;;
6785;SDS011;3430;51.192;6.048;2024-01-06T04:27:47;9.17;;;7.17;;
6785;SDS011;3430;51.192;6.048;2024-01-06T04:30:14;8.93;;;7.53;;
6785;SDS011;3430;51.192;6.048;2024-01-06T04:32:39;10.23;;;8.13;;
6785;SDS011;3430;51.192;6.048;2024-01-06T04:35:05;9.10;;;6.90;;
6785;SDS011;3430;51.192;6.048;2024-01-06T04:37:30;8.70;;;7.63;;
6785;SDS011;3430;51.192;6.048;2024-01-06T04:39:56;8.47;;;7.10;;
6785;SDS011;3430;51.192;6.048;2024-01-06T04:42:21;7.53;;;6.70;;
6785;SDS011;3430;51.192;6.048;2024-01-06T04:44:47;8.17;;;7.13;;
6785;SDS011;3430;51.192;6.048;2024-01-06T04:47:13;8.87;;;7.63;;
6785;SDS011;3430;51.192;6.048;2024-01-06T04:49:38;7.37;;;6.53;;
6785;SDS011;3430;51.192;6.048;2024-01-06T04:52:03;7.50;;;6.70;;
6785;SDS011;3430;51.192;6.048;2024-01-06T04:54:29;8.57;;;6.80;;
6785;SDS011;3430;51.192;6.048;2024-01-06T04:56:54;7.27;;;6.43;;
6785;SDS011;3430;51.192;6.048;2024-01-06T04:59:19;9.47;;;6.47;;
6785;SDS011;3430;51.192;6.048;2024-01-06T05:01:45;8.47;;;7.17;;
6785;SDS011;3430;51.192;6.048;2024-01-06T05:04:10;7.73;;;6.70;;
6785;SDS011;3430;51.192;6.048;2024-01-06T05:06:35;8.27;;;6.63;;
6785;SDS011;3430;51.192;6.048;2024-01-06T05:09:01;7.70;;;6.83;;
6785;SDS011;3430;51.192;6.048;2024-01-06T05:11:26;8.43;;;6.97;;
6785;SDS011;3430;51.192;6.048;2024-01-06T05:13:51;7.80;;;6.67;;
6785;SDS011;3430;51.192;6.048;2024-01-06T05:16:16;7.50;;;6.70;;
6785;SDS011;3430;51.192;6.048;2024-01-06T05:18:42;7.87;;;7.07;;
6785;SDS011;3430;51.192;6.048;2024-01-06T05:21:07;8.07;;;6.57;;
6785;SDS011;3430;51.192;6.048;2024-01-06T05:23:33;7.97;;;6.37;;
6785;SDS011;3430;51.192;6.048;2024-01-06T05:25:58;7.40;;;6.60;;
6785;SDS011;3430;51.192;6.048;2024-01-06T05:28:24;7.23;;;6.47;;
6785;SDS011;3430;51.192;6.048;2024-01-06T05:30:49;7.40;;;6.53;;
6785;SDS011;3430;51.192;6.048;2024-01-06T05:33:15;7.60;;;6.40;;
6785;SDS011;3430;51.192;6.048;2024-01-06T05:35:41;8.50;;;6.63;;
6785;SDS011;3430;51.192;6.048;2024-01-06T05:38:06;7.33;;;6.63;;
6785;SDS011;3430;51.192;6.048;2024-01-06T05:40:31;8.00;;;7.17;;
6785;SDS011;3430;51.192;6.048;2024-01-06T05:42:57;8.20;;;6.87;;
6785;SDS011;3430;51.192;6.048;2024-01-06T05:45:22;8.10;;;6.60;;
6785;SDS011;3430;51.192;6.048;2024-01-06T05:47:48;8.07;;;6.67;;
6785;SDS011;3430;51.192;6.048;2024-01-06T05:50:14;7.83;;;6.83;;
6785;SDS011;3430;51.192;6.048;2024-01-06T05:52:40;8.50;;;6.77;;
6785;SDS011;3430;51.192;6.048;2024-01-06T05:55:06;8.23;;;6.67;;
6785;SDS011;3430;51.192;6.048;2024-01-06T05:57:31;8.80;;;7.07;;
6785;SDS011;3430;51.192;6.048;2024-01-06T05:59:57;8.90;;;7.13;;
6785;SDS011;3430;51.192;6.048;2024-01-06T06:02:22;9.40;;;7.10;;
6785;SDS011;3430;51.192;6.048;2024-01-06T06:04:47;8.23;;;6.90;;
6785;SDS011;3430;51.192;6.048;2024-01-06T06:07:12;8.30;;;6.73;;
6785;SDS011;3430;51.192;6.048;2024-01-06T06:09:38;7.97;;;6.70;;
6785;SDS011;3430;51.192;6.048;2024-01-06T06:12:05;7.50;;;6.70;;
6785;SDS011;3430;51.192;6.048;2024-01-06T06:14:30;7.23;;;6.27;;
6785;SDS011;3430;51.192;6.048;2024-01-06T06:16:55;9.23;;;6.90;;
6785;SDS011;3430;51.192;6.048;2024-01-06T06:19:21;8.57;;;7.30;;
6785;SDS011;3430;51.192;6.048;2024-01-06T06:21:47;8.17;;;6.80;;
6785;SDS011;3430;51.192;6.048;2024-01-06T06:24:12;7.20;;;5.97;;
6785;SDS011;3430;51.192;6.048;2024-01-06T06:26:38;7.97;;;7.17;;
6785;SDS011;3430;51.192;6.048;2024-01-06T06:29:03;8.87;;;6.93;;
6785;SDS011;3430;51.192;6.048;2024-01-06T06:31:29;8.37;;;7.20;;
6785;SDS011;3430;51.192;6.048;2024-01-06T06:33:54;7.63;;;6.73;;
6785;SDS011;3430;51.192;6.048;2024-01-06T06:36:19;8.10;;;6.37;;
6785;SDS011;3430;51.192;6.048;2024-01-06T06:38:45;7.37;;;6.57;;
6785;SDS011;3430;51.192;6.048;2024-01-06T06:41:10;6.77;;;6.07;;
6785;SDS011;3430;51.192;6.048;2024-01-06T06:43:35;8.00;;;6.73;;
6785;SDS011;3430;51.192;6.048;2024-01-06T06:46:01;7.50;;;6.70;;
6785;SDS011;3430;51.192;6.048;2024-01-06T06:48:27;8.67;;;7.20;;
6785;SDS011;3430;51.192;6.048;2024-01-06T06:50:52;8.70;;;6.93;;
6785;SDS011;3430;51.192;6.048;2024-01-06T06:53:18;8.77;;;6.77;;
6785;SDS011;3430;51.192;6.048;2024-01-06T06:55:43;9.07;;;7.30;;
6785;SDS011;3430;51.192;6.048;2024-01-06T06:58:09;7.40;;;6.57;;
6785;SDS011;3430;51.192;6.048;2024-01-06T07:00:34;8.00;;;6.87;;
6785;SDS011;3430;51.192;6.048;2024-01-06T07:03:00;7.13;;;6.30;;
6785;SDS011;3430;51.192;6.048;2024-01-06T07:05:27;9.10;;;6.60;;
6785;SDS011;3430;51.192;6.048;2024-01-06T07:07:59;7.23;;;6.07;;
6785;SDS011;3430;51.192;6.048;2024-01-06T07:10:26;6.90;;;6.17;;
6785;SDS011;3430;51.192;6.048;2024-01-06T07:12:54;7.57;;;6.77;;
6785;SDS011;3430;51.192;6.048;2024-01-06T07:15:24;7.30;;;6.07;;
6785;SDS011;3430;51.192;6.048;2024-01-06T07:17:53;7.70;;;6.73;;
6785;SDS011;3430;51.192;6.048;2024-01-06T07:20:24;7.97;;;6.70;;
6785;SDS011;3430;51.192;6.048;2024-01-06T07:22:53;7.80;;;5.90;;
6785;SDS011;3430;51.192;6.048;2024-01-06T07:25:20;6.97;;;6.13;;
6785;SDS011;3430;51.192;6.048;2024-01-06T07:27:52;7.43;;;6.73;;
6785;SDS011;3430;51.192;6.048;2024-01-06T07:30:22;7.33;;;6.30;;
6785;SDS011;3430;51.192;6.048;2024-01-06T07:32:50;6.90;;;5.77;;
6785;SDS011;3430;51.192;6.048;2024-01-06T07:35:19;7.33;;;6.57;;
6785;SDS011;3430;51.192;6.048;2024-01-06T07:37:47;7.20;;;6.40;;
6785;SDS011;3430;51.192;6.048;2024-01-06T07:40:13;8.37;;;6.53;;
6785;SDS011;3430;51.192;6.048;2024-01-06T07:42:42;6.67;;;5.87;;
6785;SDS011;3430;51.192;6.048;2024-01-06T07:45:09;7.47;;;6.67;;
6785;SDS011;3430;51.192;6.048;2024-01-06T07:47:39;8.00;;;6.80;;
6785;SDS011;3430;51.192;6.048;2024-01-06T07:50:18;8.40;;;6.73;;
6785;SDS011;3430;51.192;6.048;2024-01-06T07:52:45;7.70;;;6.00;;
6785;SDS011;3430;51.192;6.048;2024-01-06T07:55:11;7.63;;;6.43;;
6785;SDS011;3430;51.192;6.048;2024-01-06T07:57:36;6.97;;;5.70;;
6785;SDS011;3430;51.192;6.048;2024-01-06T08:00:04;7.20;;;6.50;;
6785;SDS011;3430;51.192;6.048;2024-01-06T08:02:31;7.20;;;6.40;;
6785;SDS011;3430;51.192;6.048;2024-01-06T08:04:58;6.63;;;5.93;;
6785;SDS011;3430;51.192;6.048;2024-01-06T08:07:26;7.23;;;6.17;;
6785;SDS011;3430;51.192;6.048;2024-01-06T08:09:54;8.10;;;6.60;;
6785;SDS011;3430;51.192;6.048;2024-01-06T08:12:23;7.17;;;6.27;;
6785;SDS011;3430;51.192;6.048;2024-01-06T08:14:49;7.33;;;6.03;;
6785;SDS011;3430;51.192;6.048;2024-01-06T08:17:15;6.80;;;6.10;;
6785;SDS011;3430;51.192;6.048;2024-01-06T08:19:42;9.20;;;6.17;;
6785;SDS011;3430;51.192;6.048;2024-01-06T08:22:09;8.57;;;6.20;;
6785;SDS011;3430;51.192;6.048;2024-01-06T08:24:38;9.93;;;6.17;;
6785;SDS011;3430;51.192;6.048;2024-01-06T08:27:06;10.33;;;7.37;;
6785;SDS011;3430;51.192;6.048;2024-01-06T08:29:36;8.40;;;6.17;;
6785;SDS011;3430;51.192;6.048;2024-01-06T08:32:07;9.73;;;5.60;;
6785;SDS011;3430;51.192;6.048;2024-01-06T08:34:34;7.07;;;6.13;;
6785;SDS011;3430;51.192;6.048;2024-01-06T08:37:05;7.17;;;6.07;;
6785;SDS011;3430;51.192;6.048;2024-01-06T08:39:33;6.47;;;5.70;;
6785;SDS011;3430;51.192;6.048;2024-01-06T08:42:01;8.83;;;6.23;;
6785;SDS011;3430;51.192;6.048;2024-01-06T08:44:32;7.60;;;6.30;;
6785;SDS011;3430;51.192;6.048;2024-01-06T08:47:01;9.77;;;5.90;;
6785;SDS011;3430;51.192;6.048;2024-01-06T08:49:31;8.63;;;6.93;;
6785;SDS011;3430;51.192;6.048;2024-01-06T08:51:58;7.10;;;6.23;;
6785;SDS011;3430;51.192;6.048;2024-01-06T08:54:28;9.93;;;6.20;;
6785;SDS011;3430;51.192;6.048;2024-01-06T08:56:57;7.47;;;6.70;;
6785;SDS011;3430;51.192;6.048;2024-01-06T08:59:26;6.67;;;5.97;;
6785;SDS011;3430;51.192;6.048;2024-01-06T09:01:55;11.13;;;6.70;;
6785;SDS011;3430;51.192;6.048;2024-01-06T09:04:41;7.00;;;5.70;;
6785;SDS011;3430;51.192;6.048;2024-01-06T09:07:08;9.37;;;6.20;;
6785;SDS011;3430;51.192;6.048;2024-01-06T09:09:36;8.47;;;5.90;;
6785;SDS011;3430;51.192;6.048;2024-01-06T09:12:04;9.27;;;6.70;;
6785;SDS011;3430;51.192;6.048;2024-01-06T09:14:33;6.87;;;6.17;;
6785;SDS011;3430;51.192;6.048;2024-01-06T09:16:59;8.07;;;5.77;;
6785;SDS011;3430;51.192;6.048;2024-01-06T09:19:29;10.57;;;6.67;;
6785;SDS011;3430;51.192;6.048;2024-01-06T09:22:00;7.53;;;6.37;;
6785;SDS011;3430;51.192;6.048;2024-01-06T09:24:26;9.97;;;6.23;;
6785;SDS011;3430;51.192;6.048;2024-01-06T09:26:53;7.40;;;6.10;;
6785;SDS011;3430;51.192;6.048;2024-01-06T09:29:20;7.93;;;6.73;;
6785;SDS011;3430;51.192;6.048;2024-01-06T09:31:48;9.70;;;6.80;;
6785;SDS011;3430;51.192;6.048;2024-01-06T09:34:14;6.47;;;5.50;;
6785;SDS011;3430;51.192;6.048;2024-01-06T09:36:41;8.60;;;6.37;;
6785;SDS011;3430;51.192;6.048;2024-01-06T09:39:07;7.33;;;6.10;;
6785;SDS011;3430;51.192;6.048;2024-01-06T09:41:33;8.13;;;6.57;;
6785;SDS011;3430;51.192;6.048;2024-01-06T09:43:59;8.13;;;6.37;;
6785;SDS011;3430;51.192;6.048;2024-01-06T09:46:27;7.60;;;5.93;;
6785;SDS011;3430;51.192;6.048;2024-01-06T09:48:56;9.27;;;6.43;;
6785;SDS011;3430;51.192;6.048;2024-01-06T09:51:26;7.57;;;6.23;;
6785;SDS011;3430;51.192;6.048;2024-01-06T09:54:01;7.53;;;5.80;;
6785;SDS011;3430;51.192;6.048;2024-01-06T09:56:32;10.63;;;5.77;;
6785;SDS011;3430;51.192;6.048;2024-01-06T09:58:58;7.03;;;6.30;;
6785;SDS011;3430;51.192;6.048;2024-01-06T10:01:26;7.57;;;5.90;;
6785;SDS011;3430;51.192;6.048;2024-01-06T10:03:53;6.90;;;5.83;;
6785;SDS011;3430;51.192;6.048;2024-01-06T10:06:21;7.17;;;6.20;;
6785;SDS011;3430;51.192;6.048;2024-01-06T10:08:48;7.00;;;6.30;;
6785;SDS011;3430;51.192;6.048;2024-01-06T10:11:14;8.97;;;6.00;;
6785;SDS011;3430;51.192;6.048;2024-01-06T10:13:40;6.63;;;5.67;;
6785;SDS011;3430;51.192;6.048;2024-01-06T10:16:09;6.60;;;5.77;;
6785;SDS011;3430;51.192;6.048;2024-01-06T10:18:34;7.17;;;6.20;;
6785;SDS011;3430;51.192;6.048;2024-01-06T10:21:04;8.67;;;5.90;;
6785;SDS011;3430;51.192;6.048;2024-01-06T10:23:33;6.80;;;6.10;;
6785;SDS011;3430;51.192;6.048;2024-01-06T10:26:00;8.33;;;6.40;;
6785;SDS011;3430;51.192;6.048;2024-01-06T10:28:26;7.83;;;6.03;;
6785;SDS011;3430;51.192;6.048;2024-01-06T10:30:52;8.03;;;5.60;;
6785;SDS011;3430;51.192;6.048;2024-01-06T10:33:21;7.47;;;6.47;;
6785;SDS011;3430;51.192;6.048;2024-01-06T10:35:48;7.77;;;6.10;;
6785;SDS011;3430;51.192;6.048;2024-01-06T10:38:14;8.70;;;6.03;;
6785;SDS011;3430;51.192;6.048;2024-01-06T10:40:57;6.57;;;5.63;;
6785;SDS011;3430;51.192;6.048;2024-01-06T10:43:26;7.93;;;5.83;;
6785;SDS011;3430;51.192;6.048;2024-01-06T10:45:57;8.63;;;6.43;;
6785;SDS011;3430;51.192;6.048;2024-01-06T10:48:25;8.90;;;6.20;;
6785;SDS011;3430;51.192;6.048;2024-01-06T10:50:55;7.40;;;6.30;;
6785;SDS011;3430;51.192;6.048;2024-01-06T10:53:28;9.00;;;5.87;;
6785;SDS011;3430;51.192;6.048;2024-01-06T10:55:56;6.80;;;5.87;;
6785;SDS011;3430;51.192;6.048;2024-01-06T10:58:25;8.70;;;6.10;;
6785;SDS011;3430;51.192;6.048;2024-01-06T11:00:56;8.20;;;6.00;;
6785;SDS011;3430;51.192;6.048;2024-01-06T11:03:24;7.97;;;6.57;;
6785;SDS011;3430;51.192;6.048;2024-01-06T11:05:52;8.17;;;6.57;;
6785;SDS011;3430;51.192;6.048;2024-01-06T11:08:23;7.83;;;6.00;;
6785;SDS011;3430;51.192;6.048;2024-01-06T11:10:54;8.73;;;6.33;;
6785;SDS011;3430;51.192;6.048;2024-01-06T11:13:23;8.37;;;6.57;;
6785;SDS011;3430;51.192;6.048;2024-01-06T11:15:53;9.90;;;6.30;;
6785;SDS011;3430;51.192;6.048;2024-01-06T11:18:36;8.47;;;6.80;;
6785;SDS011;3430;51.192;6.048;2024-01-06T11:21:14;7.70;;;6.03;;
6785;SDS011;3430;51.192;6.048;2024-01-06T11:26:38;7.47;;;6.37;;
6785;SDS011;3430;51.192;6.048;2024-01-06T11:29:06;7.93;;;6.07;;
6785;SDS011;3430;51.192;6.048;2024-01-06T11:31:33;7.20;;;6.07;;
6785;SDS011;3430;51.192;6.048;2024-01-06T11:34:12;7.17;;;6.30;;
6785;SDS011;3430;51.192;6.048;2024-01-06T11:36:40;6.83;;;6.00;;
6785;SDS011;3430;51.192;6.048;2024-01-06T11:39:33;8.87;;;7.13;;
6785;SDS011;3430;51.192;6.048;2024-01-06T11:41:56;7.07;;;6.37;;
6785;SDS011;3430;51.192;6.048;2024-01-06T11:44:26;7.17;;;6.30;;
6785;SDS011;3430;51.192;6.048;2024-01-06T11:46:57;6.50;;;5.47;;
6785;SDS011;3430;51.192;6.048;2024-01-06T11:49:26;8.70;;;6.73;;
6785;SDS011;3430;51.192;6.048;2024-01-06T11:51:59;7.10;;;6.40;;
6785;SDS011;3430;51.192;6.048;2024-01-06T11:54:37;8.03;;;6.20;;
6785;SDS011;3430;51.192;6.048;2024-01-06T11:57:05;7.23;;;6.53;;
6785;SDS011;3430;51.192;6.048;2024-01-06T11:59:31;7.43;;;6.33;;
6785;SDS011;3430;51.192;6.048;2024-01-06T12:01:57;10.53;;;6.20;;
6785;SDS011;3430;51.192;6.048;2024-01-06T12:04:25;8.90;;;6.83;;
6785;SDS011;3430;51.192;6.048;2024-01-06T12:06:53;9.47;;;6.70;;
6785;SDS011;3430;51.192;6.048;2024-01-06T12:09:22;8.50;;;6.67;;
6785;SDS011;3430;51.192;6.048;2024-01-06T12:12:00;8.90;;;6.37;;
6785;SDS011;3430;51.192;6.048;2024-01-06T12:14:26;6.70;;;5.77;;
6785;SDS011;3430;51.192;6.048;2024-01-06T12:16:55;7.43;;;6.50;;
6785;SDS011;3430;51.192;6.048;2024-01-06T12:19:24;6.93;;;6.07;;
6785;SDS011;3430;51.192;6.048;2024-01-06T12:21:52;7.77;;;5.90;;
6785;SDS011;3430;51.192;6.048;2024-01-06T12:24:27;7.30;;;6.20;;
6785;SDS011;3430;51.192;6.048;2024-01-06T12:26:58;6.73;;;6.03;;
6785;SDS011;3430;51.192;6.048;2024-01-06T12:29:29;7.63;;;6.83;;
6785;SDS011;3430;51.192;6.048;2024-01-06T12:32:01;7.67;;;6.40;;
6785;SDS011;3430;51.192;6.048;2024-01-06T12:34:27;8.23;;;6.57;;
6785;SDS011;3430;51.192;6.048;2024-01-06T12:36:53;7.97;;;6.13;;
6785;SDS011;3430;51.192;6.048;2024-01-06T12:39:20;9.17;;;7.33;;
6785;SDS011;3430;51.192;6.048;2024-01-06T12:41:46;11.73;;;6.73;;
6785;SDS011;3430;51.192;6.048;2024-01-06T12:44:12;7.40;;;6.37;;
6785;SDS011;3430;51.192;6.048;2024-01-06T12:46:38;8.20;;;6.90;;
6785;SDS011;3430;51.192;6.048;2024-01-06T12:49:03;6.97;;;6.27;;
6785;SDS011;3430;51.192;6.048;2024-01-06T12:51:29;7.70;;;6.90;;
6785;SDS011;3430;51.192;6.048;2024-01-06T12:53:55;8.67;;;6.73;;
6785;SDS011;3430;51.192;6.048;2024-01-06T12:56:22;7.40;;;6.40;;
6785;SDS011;3430;51.192;6.048;2024-01-06T12:58:48;8.00;;;6.57;;
6785;SDS011;3430;51.192;6.048;2024-01-06T13:01:14;8.60;;;7.10;;
6785;SDS011;3430;51.192;6.048;2024-01-06T13:03:40;8.87;;;7.13;;
6785;SDS011;3430;51.192;6.048;2024-01-06T13:06:05;7.40;;;6.27;;
6785;SDS011;3430;51.192;6.048;2024-01-06T13:08:31;7.03;;;5.50;;
6785;SDS011;3430;51.192;6.048;2024-01-06T13:10:57;9.60;;;6.70;;
6785;SDS011;3430;51.192;6.048;2024-01-06T13:13:25;8.07;;;6.70;;
6785;SDS011;3430;51.192;6.048;2024-01-06T13:15:52;9.40;;;6.30;;
6785;SDS011;3430;51.192;6.048;2024-01-06T13:18:21;7.43;;;6.30;;
6785;SDS011;3430;51.192;6.048;2024-01-06T13:20:47;6.70;;;6.00;;
6785;SDS011;3430;51.192;6.048;2024-01-06T13:23:16;7.97;;;6.40;;
6785;SDS011;3430;51.192;6.048;2024-01-06T13:25:43;7.10;;;6.10;;
6785;SDS011;3430;51.192;6.048;2024-01-06T13:28:12;8.00;;;6.07;;
6785;SDS011;3430;51.192;6.048;2024-01-06T13:30:40;8.13;;;6.50;;
6785;SDS011;3430;51.192;6.048;2024-01-06T13:33:07;8.20;;;6.17;;
6785;SDS011;3430;51.192;6.048;2024-01-06T13:35:37;7.93;;;6.33;;
6785;SDS011;3430;51.192;6.048;2024-01-06T13:38:06;6.80;;;6.10;;
6785;SDS011;3430;51.192;6.048;2024-01-06T13:40:34;9.47;;;6.53;;
6785;SDS011;3430;51.192;6.048;2024-01-06T13:42:59;10.63;;;6.80;;
6785;SDS011;3430;51.192;6.048;2024-01-06T13:45:30;8.23;;;7.10;;
6785;SDS011;3430;51.192;6.048;2024-01-06T13:47:57;7.13;;;5.93;;
6785;SDS011;3430;51.192;6.048;2024-01-06T13:50:23;7.80;;;6.10;;
6785;SDS011;3430;51.192;6.048;2024-01-06T13:52:50;7.03;;;5.80;;
6785;SDS011;3430;51.192;6.048;2024-01-06T13:55:16;7.53;;;6.60;;
6785;SDS011;3430;51.192;6.048;2024-01-06T13:57:41;6.90;;;5.97;;
6785;SDS011;3430;51.192;6.048;2024-01-06T14:00:10;7.47;;;6.17;;
6785;SDS011;3430;51.192;6.048;2024-01-06T14:02:40;9.67;;;6.90;;
6785;SDS011;3430;51.192;6.048;2024-01-06T14:05:05;7.73;;;6.43;;
6785;SDS011;3430;51.192;6.048;2024-01-06T14:07:33;7.70;;;6.40;;
6785;SDS011;3430;51.192;6.048;2024-01-06T14:09:58;6.67;;;5.97;;
6785;SDS011;3430;51.192;6.048;2024-01-06T14:12:24;8.83;;;6.67;;
6785;SDS011;3430;51.192;6.048;2024-01-06T14:14:49;8.53;;;6.57;;
6785;SDS011;3430;51.192;6.048;2024-01-06T14:17:14;7.93;;;6.90;;
6785;SDS011;3430;51.192;6.048;2024-01-06T14:19:40;10.27;;;9.07;;
6785;SDS011;3430;51.192;6.048;2024-01-06T14:22:05;8.13;;;6.73;;
6785;SDS011;3430;51.192;6.048;2024-01-06T14:24:30;7.30;;;6.53;;
6785;SDS011;3430;51.192;6.048;2024-01-06T14:26:56;7.03;;;6.33;;
6785;SDS011;3430;51.192;6.048;2024-01-06T14:29:22;7.97;;;6.63;;
6785;SDS011;3430;51.192;6.048;2024-01-06T14:31:48;10.87;;;7.53;;
6785;SDS011;3430;51.192;6.048;2024-01-06T14:34:14;7.13;;;6.17;;
6785;SDS011;3430;51.192;6.048;2024-01-06T14:36:39;7.53;;;6.60;;
6785;SDS011;3430;51.192;6.048;2024-01-06T14:39:14;8.37;;;7.03;;
6785;SDS011;3430;51.192;6.048;2024-01-06T14:41:40;7.53;;;6.57;;
6785;SDS011;3430;51.192;6.048;2024-01-06T14:44:06;8.27;;;6.80;;
6785;SDS011;3430;51.192;6.048;2024-01-06T14:46:31;6.97;;;6.10;;
6785;SDS011;3430;51.192;6.048;2024-01-06T14:48:58;9.27;;;6.50;;
6785;SDS011;3430;51.192;6.048;2024-01-06T14:51:24;7.07;;;6.27;;
6785;SDS011;3430;51.192;6.048;2024-01-06T14:53:49;8.70;;;6.93;;
6785;SDS011;3430;51.192;6.048;2024-01-06T14:56:14;9.03;;;6.70;;
6785;SDS011;3430;51.192;6.048;2024-01-06T14:58:40;8.93;;;7.40;;
6785;SDS011;3430;51.192;6.048;2024-01-06T15:01:05;8.77;;;7.23;;
6785;SDS011;3430;51.192;6.048;2024-01-06T15:03:30;8.83;;;6.60;;
6785;SDS011;3430;51.192;6.048;2024-01-06T15:05:56;8.43;;;6.50;;
6785;SDS011;3430;51.192;6.048;2024-01-06T15:08:21;8.57;;;7.50;;
6785;SDS011;3430;51.192;6.048;2024-01-06T15:10:47;10.00;;;7.40;;
6785;SDS011;3430;51.192;6.048;2024-01-06T15:13:12;9.83;;;6.87;;
6785;SDS011;3430;51.192;6.048;2024-01-06T15:15:37;7.80;;;6.80;;